VOZ525 YSSY-YBCG
Flight info
| Callsign | VOZ525 |
|---|---|
| Flight time | 1h 0m |
| Altitude | 35000 |
| Route | KEVIN7/16L OLSEM Y193 BANDA Y43 GOMOL |
| Aircraft | B737/M-SDE2E3FGHIRWXY/LB1 |
Departure
| Time | 2026-05-05 04:34 |
|---|---|
| Airport | Sydney Kingsford Smith International Airport (YSSY) |
Arrival
| Time | 2026-05-05 05:35 |
|---|---|
| Airport | Gold Coast Airport (YBCG) |
| Time | Latitude | Longitude | Altitude | Speed | Heading |
|---|---|---|---|---|---|
| 2026-05-05 04:11 | -33.93478 | 151.18026 | 29 ft | 0 kts | 282° |
| 2026-05-05 04:23 | -33.93478 | 151.18028 | 29 ft | 2 kts | 282° |
| 2026-05-05 04:23 | -33.93483 | 151.18051 | 29 ft | 3 kts | 279° |
| 2026-05-05 04:23 | -33.93483 | 151.18072 | 29 ft | 3 kts | 234° |
| 2026-05-05 04:23 | -33.93489 | 151.18068 | 29 ft | 3 kts | 206° |
| 2026-05-05 04:24 | -33.93508 | 151.18067 | 29 ft | 3 kts | 179° |
| 2026-05-05 04:24 | -33.93529 | 151.18067 | 29 ft | 3 kts | 181° |
| 2026-05-05 04:24 | -33.93548 | 151.18064 | 29 ft | 1 kts | 190° |
| 2026-05-05 04:25 | -33.93549 | 151.18064 | 29 ft | 0 kts | 190° |
| 2026-05-05 04:26 | -33.93550 | 151.18064 | 29 ft | 1 kts | 190° |
| 2026-05-05 04:26 | -33.93565 | 151.18061 | 29 ft | 3 kts | 190° |
| 2026-05-05 04:26 | -33.93584 | 151.18056 | 29 ft | 5 kts | 191° |
| 2026-05-05 04:26 | -33.93632 | 151.18051 | 29 ft | 8 kts | 181° |
| 2026-05-05 04:27 | -33.93684 | 151.18052 | 29 ft | 7 kts | 172° |
| 2026-05-05 04:27 | -33.93734 | 151.18066 | 29 ft | 7 kts | 167° |
| 2026-05-05 04:27 | -33.93775 | 151.18044 | 29 ft | 7 kts | 241° |
| 2026-05-05 04:27 | -33.93792 | 151.17981 | 29 ft | 9 kts | 252° |
| 2026-05-05 04:28 | -33.93811 | 151.17899 | 29 ft | 11 kts | 254° |
| 2026-05-05 04:28 | -33.93834 | 151.17802 | 29 ft | 13 kts | 255° |
| 2026-05-05 04:28 | -33.93857 | 151.17702 | 28 ft | 12 kts | 255° |
| 2026-05-05 04:28 | -33.93855 | 151.17606 | 28 ft | 12 kts | 313° |
| 2026-05-05 04:29 | -33.93777 | 151.17580 | 28 ft | 12 kts | 347° |
| 2026-05-05 04:29 | -33.93698 | 151.17559 | 28 ft | 12 kts | 349° |
| 2026-05-05 04:29 | -33.93617 | 151.17538 | 28 ft | 12 kts | 348° |
| 2026-05-05 04:29 | -33.93537 | 151.17516 | 28 ft | 13 kts | 346° |
| 2026-05-05 04:30 | -33.93441 | 151.17503 | 29 ft | 15 kts | 6° |
| 2026-05-05 04:30 | -33.93332 | 151.17491 | 29 ft | 16 kts | 348° |
| 2026-05-05 04:30 | -33.93226 | 151.17463 | 29 ft | 15 kts | 348° |
| 2026-05-05 04:30 | -33.93125 | 151.17438 | 29 ft | 15 kts | 348° |
| 2026-05-05 04:31 | -33.93040 | 151.17417 | 29 ft | 10 kts | 347° |
| 2026-05-05 04:31 | -33.92976 | 151.17385 | 29 ft | 10 kts | 309° |
| 2026-05-05 04:31 | -33.92957 | 151.17306 | 30 ft | 10 kts | 281° |
| 2026-05-05 04:31 | -33.92961 | 151.17225 | 30 ft | 10 kts | 257° |
| 2026-05-05 04:32 | -33.92971 | 151.17171 | 30 ft | 2 kts | 254° |
| 2026-05-05 04:32 | -33.92979 | 151.17170 | 29 ft | 1 kts | 169° |
| 2026-05-05 04:32 | -33.92981 | 151.17171 | 29 ft | 0 kts | 168° |
| 2026-05-05 04:33 | -33.93012 | 151.17179 | 29 ft | 21 kts | 167° |
| 2026-05-05 04:33 | -33.93394 | 151.17278 | 27 ft | 90 kts | 168° |
| 2026-05-05 04:34 | -33.94207 | 151.17487 | 30 ft | 145 kts | 167° |
| 2026-05-05 04:34 | -33.95272 | 151.17766 | 399 ft | 157 kts | 169° |
| 2026-05-05 04:34 | -33.96317 | 151.18046 | 1119 ft | 156 kts | 170° |
| 2026-05-05 04:34 | -33.97404 | 151.18339 | 1692 ft | 162 kts | 170° |
| 2026-05-05 04:35 | -33.98426 | 151.18986 | 2174 ft | 181 kts | 135° |
| 2026-05-05 04:35 | -33.98903 | 151.20501 | 2451 ft | 213 kts | 90° |
| 2026-05-05 04:35 | -33.98373 | 151.22228 | 2646 ft | 238 kts | 49° |
| 2026-05-05 04:35 | -33.97120 | 151.23647 | 2890 ft | 261 kts | 41° |
| 2026-05-05 04:36 | -33.95702 | 151.25133 | 3421 ft | 276 kts | 40° |
| 2026-05-05 04:36 | -33.94248 | 151.26676 | 4232 ft | 281 kts | 41° |
| 2026-05-05 04:36 | -33.92782 | 151.28271 | 5012 ft | 287 kts | 43° |
| 2026-05-05 04:36 | -33.91302 | 151.29917 | 5871 ft | 288 kts | 43° |
| 2026-05-05 04:37 | -33.89859 | 151.31553 | 6905 ft | 284 kts | 42° |
| 2026-05-05 04:37 | -33.88413 | 151.33203 | 7727 ft | 290 kts | 42° |
| 2026-05-05 04:37 | -33.86936 | 151.34893 | 8560 ft | 295 kts | 40° |
| 2026-05-05 04:37 | -33.85439 | 151.36614 | 9448 ft | 300 kts | 40° |
| 2026-05-05 04:38 | -33.83916 | 151.38374 | 10270 ft | 307 kts | 40° |
| 2026-05-05 04:38 | -33.82318 | 151.40220 | 10588 ft | 332 kts | 40° |
| 2026-05-05 04:38 | -33.80586 | 151.42220 | 10796 ft | 358 kts | 40° |
| 2026-05-05 04:38 | -33.78749 | 151.44349 | 11282 ft | 372 kts | 41° |
| 2026-05-05 04:39 | -33.76898 | 151.46497 | 12030 ft | 377 kts | 41° |
| 2026-05-05 04:39 | -33.75000 | 151.48701 | 12878 ft | 380 kts | 41° |
| 2026-05-05 04:39 | -33.73081 | 151.50927 | 13757 ft | 384 kts | 41° |
| 2026-05-05 04:39 | -33.71145 | 151.53168 | 14519 ft | 388 kts | 40° |
| 2026-05-05 04:40 | -33.69189 | 151.55430 | 15308 ft | 391 kts | 40° |
| 2026-05-05 04:40 | -33.67219 | 151.57701 | 16132 ft | 394 kts | 41° |
| 2026-05-05 04:40 | -33.65230 | 151.59983 | 16928 ft | 396 kts | 39° |
| 2026-05-05 04:40 | -33.63052 | 151.62005 | 17680 ft | 397 kts | 31° |
| 2026-05-05 04:41 | -33.60731 | 151.63817 | 18443 ft | 400 kts | 30° |
| 2026-05-05 04:41 | -33.58404 | 151.65602 | 19054 ft | 404 kts | 29° |
| 2026-05-05 04:41 | -33.56023 | 151.67448 | 19628 ft | 410 kts | 29° |
| 2026-05-05 04:41 | -33.53620 | 151.69335 | 20188 ft | 416 kts | 29° |
| 2026-05-05 04:42 | -33.51179 | 151.71249 | 20736 ft | 421 kts | 27° |
| 2026-05-05 04:42 | -33.48583 | 151.72852 | 21308 ft | 420 kts | 17° |
| 2026-05-05 04:42 | -33.45807 | 151.73901 | 21901 ft | 418 kts | 9° |
| 2026-05-05 04:42 | -33.42962 | 151.74738 | 22479 ft | 422 kts | 8° |
| 2026-05-05 04:43 | -33.40098 | 151.75591 | 23024 ft | 427 kts | 8° |
| 2026-05-05 04:43 | -33.37209 | 151.76484 | 23559 ft | 431 kts | 9° |
| 2026-05-05 04:43 | -33.34292 | 151.77413 | 24025 ft | 435 kts | 9° |
| 2026-05-05 04:43 | -33.31375 | 151.78356 | 24652 ft | 432 kts | 8° |
| 2026-05-05 04:44 | -33.28484 | 151.79298 | 25317 ft | 430 kts | 8° |
| 2026-05-05 04:44 | -33.25630 | 151.80226 | 25834 ft | 431 kts | 7° |
| 2026-05-05 04:44 | -33.22724 | 151.81166 | 26310 ft | 433 kts | 7° |
| 2026-05-05 04:44 | -33.19813 | 151.82106 | 26788 ft | 434 kts | 7° |
| 2026-05-05 04:45 | -33.16889 | 151.83048 | 27276 ft | 435 kts | 6° |
| 2026-05-05 04:45 | -33.13962 | 151.83991 | 27755 ft | 436 kts | 6° |
| 2026-05-05 04:45 | -33.11025 | 151.84935 | 28199 ft | 436 kts | 7° |
| 2026-05-05 04:45 | -33.08093 | 151.85879 | 28716 ft | 436 kts | 7° |
| 2026-05-05 04:46 | -33.05160 | 151.86822 | 29164 ft | 436 kts | 6° |
| 2026-05-05 04:46 | -33.02261 | 151.87752 | 29569 ft | 437 kts | 6° |
| 2026-05-05 04:46 | -32.99318 | 151.88697 | 30100 ft | 435 kts | 6° |
| 2026-05-05 04:46 | -32.96410 | 151.89632 | 30690 ft | 431 kts | 6° |
| 2026-05-05 04:47 | -32.93528 | 151.90560 | 31231 ft | 427 kts | 6° |
| 2026-05-05 04:47 | -32.90656 | 151.91481 | 31637 ft | 427 kts | 5° |
| 2026-05-05 04:47 | -32.87781 | 151.92407 | 31949 ft | 429 kts | 7° |
| 2026-05-05 04:47 | -32.84901 | 151.93386 | 32262 ft | 430 kts | 7° |
| 2026-05-05 04:48 | -32.82001 | 151.94312 | 32501 ft | 432 kts | 6° |
| 2026-05-05 04:48 | -32.79083 | 151.95223 | 32829 ft | 433 kts | 6° |
| 2026-05-05 04:48 | -32.76212 | 151.96120 | 33284 ft | 431 kts | 6° |
| 2026-05-05 04:48 | -32.73321 | 151.97028 | 33757 ft | 428 kts | 6° |
| 2026-05-05 04:49 | -32.70441 | 151.97938 | 34140 ft | 427 kts | 6° |
| 2026-05-05 04:49 | -32.67568 | 151.98846 | 34416 ft | 428 kts | 6° |
| 2026-05-05 04:49 | -32.64682 | 151.99760 | 34629 ft | 430 kts | 6° |
| 2026-05-05 04:49 | -32.61777 | 152.00681 | 34850 ft | 432 kts | 6° |
| 2026-05-05 04:50 | -32.58874 | 152.01602 | 35103 ft | 433 kts | 5° |
| 2026-05-05 04:50 | -32.53041 | 152.03450 | 35113 ft | 437 kts | 6° |
| 2026-05-05 04:51 | -32.47201 | 152.05309 | 35102 ft | 431 kts | 5° |
| 2026-05-05 04:51 | -32.41412 | 152.07145 | 35106 ft | 431 kts | 6° |
| 2026-05-05 04:52 | -32.35601 | 152.08979 | 35124 ft | 433 kts | 6° |
| 2026-05-05 04:52 | -32.29748 | 152.10824 | 35122 ft | 436 kts | 6° |
| 2026-05-05 04:53 | -32.23865 | 152.12678 | 35111 ft | 438 kts | 6° |
| 2026-05-05 04:53 | -32.17966 | 152.14537 | 35106 ft | 439 kts | 5° |
| 2026-05-05 04:54 | -32.12048 | 152.16398 | 35118 ft | 440 kts | 5° |
| 2026-05-05 04:54 | -32.06148 | 152.18251 | 35116 ft | 442 kts | 5° |
| 2026-05-05 04:55 | -32.00200 | 152.20118 | 35101 ft | 442 kts | 5° |
| 2026-05-05 04:55 | -31.94244 | 152.21984 | 35110 ft | 442 kts | 5° |
| 2026-05-05 04:56 | -31.88300 | 152.23844 | 35113 ft | 442 kts | 5° |
| 2026-05-05 04:56 | -31.82349 | 152.25703 | 35116 ft | 442 kts | 5° |
| 2026-05-05 04:57 | -31.76484 | 152.27533 | 35104 ft | 442 kts | 5° |
| 2026-05-05 04:57 | -31.70571 | 152.29398 | 35109 ft | 442 kts | 4° |
| 2026-05-05 04:58 | -31.64620 | 152.31241 | 35115 ft | 443 kts | 3° |
| 2026-05-05 04:58 | -31.58660 | 152.33082 | 35122 ft | 443 kts | 4° |
| 2026-05-05 04:59 | -31.52691 | 152.34931 | 35108 ft | 443 kts | 3° |
| 2026-05-05 04:59 | -31.46728 | 152.36779 | 35114 ft | 443 kts | 3° |
| 2026-05-05 05:00 | -31.40764 | 152.38626 | 35120 ft | 443 kts | 3° |
| 2026-05-05 05:00 | -31.34801 | 152.40469 | 35112 ft | 443 kts | 3° |
| 2026-05-05 05:01 | -31.28838 | 152.42311 | 35115 ft | 443 kts | 3° |
| 2026-05-05 05:01 | -31.22899 | 152.44140 | 35109 ft | 444 kts | 3° |
| 2026-05-05 05:02 | -31.16918 | 152.45982 | 35098 ft | 444 kts | 3° |
| 2026-05-05 05:02 | -31.10944 | 152.47822 | 35111 ft | 443 kts | 3° |
| 2026-05-05 05:03 | -31.04996 | 152.49741 | 35128 ft | 442 kts | 3° |
| 2026-05-05 05:03 | -30.99072 | 152.51659 | 35137 ft | 437 kts | 2° |
| 2026-05-05 05:04 | -30.93158 | 152.53200 | 35100 ft | 438 kts | 2° |
| 2026-05-05 05:04 | -30.87252 | 152.55052 | 35099 ft | 440 kts | 3° |
| 2026-05-05 05:05 | -30.81354 | 152.56894 | 35091 ft | 438 kts | 2° |
| 2026-05-05 05:05 | -30.75553 | 152.59187 | 35113 ft | 448 kts | 9° |
| 2026-05-05 05:06 | -30.69776 | 152.61945 | 35105 ft | 449 kts | 10° |
| 2026-05-05 05:06 | -30.64003 | 152.64700 | 35107 ft | 448 kts | 9° |
| 2026-05-05 05:07 | -30.58292 | 152.67415 | 35070 ft | 443 kts | 14° |
| 2026-05-05 05:07 | -30.55538 | 152.68927 | 35085 ft | 431 kts | 9° |
| 2026-05-05 05:07 | -30.52736 | 152.70112 | 35119 ft | 427 kts | 7° |
| 2026-05-05 05:08 | -30.47146 | 152.72509 | 35104 ft | 432 kts | 8° |
| 2026-05-05 05:08 | -30.41537 | 152.75074 | 35105 ft | 434 kts | 9° |
| 2026-05-05 05:09 | -30.35919 | 152.77680 | 35108 ft | 435 kts | 9° |
| 2026-05-05 05:09 | -30.30282 | 152.80283 | 35101 ft | 436 kts | 9° |
| 2026-05-05 05:10 | -30.24640 | 152.82878 | 35089 ft | 436 kts | 9° |
| 2026-05-05 05:10 | -30.18996 | 152.85470 | 35102 ft | 437 kts | 8° |
| 2026-05-05 05:11 | -30.13345 | 152.88061 | 35088 ft | 437 kts | 9° |
| 2026-05-05 05:11 | -30.07710 | 152.90638 | 35089 ft | 438 kts | 9° |
| 2026-05-05 05:12 | -30.02029 | 152.93229 | 35101 ft | 439 kts | 9° |
| 2026-05-05 05:12 | -29.97295 | 152.95385 | 35080 ft | 440 kts | 9° |
| 2026-05-05 05:13 | -29.91582 | 152.97986 | 35073 ft | 441 kts | 9° |
| 2026-05-05 05:13 | -29.85873 | 153.00585 | 35067 ft | 441 kts | 9° |
| 2026-05-05 05:14 | -29.80156 | 153.03184 | 35066 ft | 442 kts | 8° |
| 2026-05-05 05:14 | -29.77290 | 153.04483 | 34769 ft | 447 kts | 9° |
| 2026-05-05 05:14 | -29.74381 | 153.05795 | 34133 ft | 449 kts | 9° |
| 2026-05-05 05:14 | -29.71469 | 153.07116 | 33299 ft | 449 kts | 9° |
| 2026-05-05 05:15 | -29.68559 | 153.08437 | 32450 ft | 449 kts | 10° |
| 2026-05-05 05:15 | -29.65653 | 153.09756 | 31621 ft | 448 kts | 10° |
| 2026-05-05 05:15 | -29.62751 | 153.11072 | 30844 ft | 448 kts | 11° |
| 2026-05-05 05:15 | -29.59901 | 153.12365 | 30270 ft | 442 kts | 11° |
| 2026-05-05 05:16 | -29.57048 | 153.13660 | 29571 ft | 438 kts | 11° |
| 2026-05-05 05:16 | -29.54228 | 153.14937 | 28899 ft | 433 kts | 11° |
| 2026-05-05 05:16 | -29.51443 | 153.16198 | 28282 ft | 427 kts | 11° |
| 2026-05-05 05:16 | -29.48686 | 153.17443 | 27656 ft | 423 kts | 11° |
| 2026-05-05 05:17 | -29.45958 | 153.18672 | 27023 ft | 418 kts | 12° |
| 2026-05-05 05:17 | -29.43258 | 153.19888 | 26434 ft | 414 kts | 12° |
| 2026-05-05 05:17 | -29.40589 | 153.21089 | 25841 ft | 410 kts | 12° |
| 2026-05-05 05:17 | -29.37936 | 153.22282 | 25252 ft | 407 kts | 12° |
| 2026-05-05 05:18 | -29.35301 | 153.23465 | 24639 ft | 405 kts | 13° |
| 2026-05-05 05:18 | -29.32678 | 153.24643 | 24042 ft | 404 kts | 13° |
| 2026-05-05 05:18 | -29.30069 | 153.25814 | 23392 ft | 402 kts | 13° |
| 2026-05-05 05:18 | -29.27508 | 153.26963 | 22738 ft | 399 kts | 14° |
| 2026-05-05 05:19 | -29.24935 | 153.28118 | 22114 ft | 395 kts | 14° |
| 2026-05-05 05:19 | -29.22383 | 153.29264 | 21490 ft | 392 kts | 15° |
| 2026-05-05 05:19 | -29.19855 | 153.30398 | 20907 ft | 388 kts | 15° |
| 2026-05-05 05:19 | -29.17350 | 153.31520 | 20327 ft | 384 kts | 15° |
| 2026-05-05 05:20 | -29.14868 | 153.32632 | 19755 ft | 382 kts | 16° |
| 2026-05-05 05:20 | -29.12406 | 153.33734 | 19177 ft | 379 kts | 16° |
| 2026-05-05 05:20 | -29.09951 | 153.34831 | 18582 ft | 377 kts | 17° |
| 2026-05-05 05:20 | -29.07516 | 153.35919 | 17939 ft | 376 kts | 17° |
| 2026-05-05 05:21 | -29.05088 | 153.37004 | 17318 ft | 373 kts | 18° |
| 2026-05-05 05:21 | -29.02713 | 153.38066 | 16738 ft | 369 kts | 18° |
| 2026-05-05 05:21 | -29.00298 | 153.39144 | 16151 ft | 366 kts | 18° |
| 2026-05-05 05:21 | -28.97933 | 153.40200 | 15578 ft | 364 kts | 19° |
| 2026-05-05 05:22 | -28.95610 | 153.41236 | 15020 ft | 360 kts | 19° |
| 2026-05-05 05:22 | -28.93310 | 153.42263 | 14451 ft | 350 kts | 19° |
| 2026-05-05 05:22 | -28.91070 | 153.43262 | 13888 ft | 341 kts | 20° |
| 2026-05-05 05:22 | -28.88884 | 153.44234 | 13289 ft | 334 kts | 20° |
| 2026-05-05 05:23 | -28.86723 | 153.45198 | 12737 ft | 333 kts | 20° |
| 2026-05-05 05:23 | -28.84560 | 153.46159 | 12191 ft | 336 kts | 20° |
| 2026-05-05 05:23 | -28.82333 | 153.47151 | 11403 ft | 351 kts | 20° |
| 2026-05-05 05:23 | -28.80057 | 153.48165 | 10747 ft | 346 kts | 21° |
| 2026-05-05 05:24 | -28.77892 | 153.49132 | 10535 ft | 324 kts | 21° |
| 2026-05-05 05:24 | -28.75856 | 153.50041 | 10381 ft | 303 kts | 21° |
| 2026-05-05 05:24 | -28.73970 | 153.50882 | 10229 ft | 286 kts | 21° |
| 2026-05-05 05:24 | -28.72150 | 153.51695 | 10085 ft | 276 kts | 21° |
| 2026-05-05 05:25 | -28.70359 | 153.52494 | 9864 ft | 281 kts | 22° |
| 2026-05-05 05:25 | -28.68503 | 153.53322 | 9502 ft | 288 kts | 22° |
| 2026-05-05 05:25 | -28.66641 | 153.54152 | 9135 ft | 287 kts | 22° |
| 2026-05-05 05:25 | -28.64782 | 153.54980 | 8766 ft | 286 kts | 21° |
| 2026-05-05 05:26 | -28.62933 | 153.55803 | 8397 ft | 284 kts | 22° |
| 2026-05-05 05:26 | -28.61094 | 153.56622 | 8057 ft | 283 kts | 22° |
| 2026-05-05 05:26 | -28.59266 | 153.57436 | 7702 ft | 282 kts | 22° |
| 2026-05-05 05:26 | -28.57446 | 153.58245 | 7344 ft | 280 kts | 22° |
| 2026-05-05 05:27 | -28.55644 | 153.59046 | 6988 ft | 275 kts | 22° |
| 2026-05-05 05:27 | -28.53885 | 153.59827 | 6646 ft | 267 kts | 22° |
| 2026-05-05 05:27 | -28.50403 | 153.60806 | 5971 ft | 255 kts | 6° |
| 2026-05-05 05:28 | -28.48652 | 153.60989 | 5637 ft | 249 kts | 5° |
| 2026-05-05 05:28 | -28.46953 | 153.61160 | 5322 ft | 242 kts | 5° |
| 2026-05-05 05:28 | -28.45281 | 153.61342 | 5040 ft | 241 kts | 5° |
| 2026-05-05 05:28 | -28.43611 | 153.61533 | 4743 ft | 241 kts | 5° |
| 2026-05-05 05:29 | -28.41935 | 153.61734 | 4437 ft | 241 kts | 5° |
| 2026-05-05 05:29 | -28.40314 | 153.61932 | 4323 ft | 232 kts | 6° |
| 2026-05-05 05:29 | -28.38734 | 153.62127 | 4193 ft | 224 kts | 6° |
| 2026-05-05 05:29 | -28.37199 | 153.62318 | 4076 ft | 221 kts | 5° |
| 2026-05-05 05:30 | -28.35681 | 153.62464 | 4013 ft | 214 kts | 355° |
| 2026-05-05 05:30 | -28.34346 | 153.61909 | 3825 ft | 203 kts | 325° |
| 2026-05-05 05:30 | -28.33128 | 153.61109 | 3553 ft | 201 kts | 330° |
| 2026-05-05 05:30 | -28.31896 | 153.60366 | 3307 ft | 200 kts | 330° |
| 2026-05-05 05:31 | -28.30674 | 153.59609 | 3041 ft | 200 kts | 329° |
| 2026-05-05 05:31 | -28.29465 | 153.58847 | 2776 ft | 196 kts | 329° |
| 2026-05-05 05:31 | -28.28292 | 153.58104 | 2526 ft | 191 kts | 329° |
| 2026-05-05 05:31 | -28.27161 | 153.57386 | 2274 ft | 187 kts | 329° |
| 2026-05-05 05:32 | -28.26038 | 153.56670 | 2016 ft | 181 kts | 330° |
| 2026-05-05 05:32 | -28.24976 | 153.55996 | 1790 ft | 168 kts | 330° |
| 2026-05-05 05:32 | -28.23988 | 153.55369 | 1551 ft | 157 kts | 331° |
| 2026-05-05 05:32 | -28.23066 | 153.54783 | 1414 ft | 146 kts | 331° |
| 2026-05-05 05:33 | -28.22169 | 153.54213 | 1170 ft | 145 kts | 331° |
| 2026-05-05 05:33 | -28.21301 | 153.53661 | 980 ft | 142 kts | 332° |
| 2026-05-05 05:33 | -28.20448 | 153.53119 | 810 ft | 142 kts | 332° |
| 2026-05-05 05:33 | -28.19595 | 153.52577 | 620 ft | 140 kts | 332° |
| 2026-05-05 05:34 | -28.18748 | 153.52038 | 422 ft | 139 kts | 333° |
| 2026-05-05 05:34 | -28.17908 | 153.51508 | 221 ft | 136 kts | 333° |
| 2026-05-05 05:34 | -28.17078 | 153.50978 | 35 ft | 138 kts | 332° |
| 2026-05-05 05:34 | -28.16358 | 153.50521 | 26 ft | 89 kts | 331° |
| 2026-05-05 05:35 | -28.15998 | 153.50291 | 29 ft | 41 kts | 331° |
| 2026-05-05 05:35 | -28.15766 | 153.50144 | 28 ft | 32 kts | 331° |
| 2026-05-05 05:35 | -28.15653 | 153.50106 | 26 ft | 12 kts | 26° |
| 2026-05-05 05:35 | -28.15610 | 153.50183 | 25 ft | 12 kts | 68° |
| 2026-05-05 05:36 | -28.15626 | 153.50266 | 26 ft | 11 kts | 136° |
| 2026-05-05 05:36 | -28.15701 | 153.50318 | 26 ft | 15 kts | 150° |
| 2026-05-05 05:36 | -28.15810 | 153.50387 | 28 ft | 21 kts | 150° |
| 2026-05-05 05:36 | -28.15947 | 153.50474 | 27 ft | 25 kts | 150° |
| 2026-05-05 05:37 | -28.16097 | 153.50570 | 25 ft | 24 kts | 150° |
| 2026-05-05 05:37 | -28.16237 | 153.50659 | 26 ft | 23 kts | 151° |
| 2026-05-05 05:37 | -28.16373 | 153.50745 | 26 ft | 22 kts | 151° |
| 2026-05-05 05:37 | -28.16486 | 153.50821 | 29 ft | 11 kts | 133° |
| 2026-05-05 05:38 | -28.16488 | 153.50906 | 25 ft | 11 kts | 94° |
| 2026-05-05 05:38 | -28.16543 | 153.50960 | 29 ft | 11 kts | 150° |
| 2026-05-05 05:38 | -28.16604 | 153.50998 | 28 ft | 8 kts | 150° |
| 2026-05-05 05:38 | -28.16618 | 153.51048 | 25 ft | 7 kts | 64° |
| 2026-05-05 05:39 | -28.16592 | 153.51097 | 25 ft | 6 kts | 60° |
| 2026-05-05 05:39 | -28.16582 | 153.51119 | 27 ft | 0 kts | 61° |